Mossville, Arkansas
Current Conditions -  °F | °C
As of 10:18 PM on Sunday 23 Nov 2014 (Local Time) from KHRO Reporting Station
Light Rain Light Rain  
Wind Chill: 42°   Ceiling: 800
Heat Index: 49°   Visibility: 8mi
Dew Point: 48°   Wind: 18mph
Humidity: 97%   Direction: 300°WNW
Pressure: 29.37"   Gusts: 29mph
Location:  36.0047°N, 93.218°W
Report Text: KHRO 240418Z AUTO 30016G25KT 8SM -RA BKN008 BKN018 OVC029 09/09 A2937 RMK AO2 RAB01 PRESRR P0002 T00940089
Loading
Personal Weather Stations






























Interactive Weather Map New forecast layout! Learn more

10-Day Weather Forecast

Advertisements
Track Severe Weather on mobile